Folkston, GA

10:34 PM EDT on August 27, 2015 (GMT -0400)
APRSWXNET | | Change Station
CLOSE
Current Station
Personal Weather Station
Location: Folkston, GA
Elevation: 88 ft
Nearby Weather Stations

Elev 88 ft 30.85 °N, 81.99 °W | Updated 26 minutes ago

Partly Cloudy
Partly Cloudy
78 °F
Feels Like 80 °F
N
1
Wind Variable Wind from North
Gusts 0.0 mph

Today
High -- | Low -- °F
--% Chance of Precip.
Yesterday
High -- | Low -- °F
Precip. -- in
7:01 AM 7:57 PM
Waxing Gibbous, 96% visible
Pressure 30.00 in
Visibility 10.0 miles
Clouds Clear
Heat Index 80 °F
Dew Point 74 °F
Humidity 89%
Rainfall in
Snow Depth Not available.
UV 0 out of 12
Pollen 7.20 out of 12
Air Quality Not available.
Flu Activity Not available.
METAR KAYS 280215Z AUTO 08003KT 10SM VCTS CLR 24/23 A3000 RMK AO2 LTG DSNT S AND SW T02350229
Pressure 30.00 in
Visibility 10.0 miles
Clouds Clear
Heat Index 80 °F
Dew Point 74 °F
Humidity 89%
Rainfall in
Snow Depth Not available.
UV 0 out of 12
Pollen 7.20 out of 12
Air Quality Not available.
Flu Activity Not available.
METAR KAYS 280215Z AUTO 08003KT 10SM VCTS CLR 24/23 A3000 RMK AO2 LTG DSNT S AND SW T02350229
Tropical Storm Erika remains unorganized as it travels through the northeast Caribbean Sea. The storm has already dumped 5-10 inches of rain on the Lesser Antilles, with more rain anticipated for Puerto Rico and Hispaniola. This will be much-needed rain for those islands. Erika is not forecast to reach hurricane strength until Monday when it curves northward along the east coast of Florida. Follow the live blog

10-Day Weather Forecast

×

Almanac

Astronomy

Aug. 27, 2015 Rise Set
Actual Time
Civil Twilight
Nautical Twilight
Astronomical Twilight
Moon
Length of Visible Light
Length of Day
Tomorrow will be .
, % of the Moon is Illuminated

Today's Extremes

State Highs State Lows

Community

WunderPhotos

Upload Photos

1,850,301 photos uploaded!

WunderBlogs® & News

Nearby

Air Quality

  Air Quality AQ Index Pollutant
Not available.

Snow Depth

Station Depth Elevation

Earthquake Activity

City Distance Mag. Time & Date
Minimum magnitude displayed is 2.5.

Coastal Water Temperatures

Place Temperature

Stations

Nearby Weather Stations

Station Location Temp. Windchill Dew Point Humidity Wind Precip. Elev Updated Type